createdAt,value
2018-06-30T00:01:37.206Z,14.03
2018-06-30T00:04:06.553Z,14.93
2018-06-30T00:06:35.965Z,13.97
2018-06-30T00:09:09.126Z,14.83
2018-06-30T00:11:38.655Z,15.90
2018-06-30T00:14:08.017Z,15.47
2018-06-30T00:16:37.369Z,14.53
2018-06-30T00:19:06.744Z,14.83
2018-06-30T00:21:36.146Z,13.57
2018-06-30T00:24:05.533Z,13.77
2018-06-30T00:26:34.898Z,14.17
2018-06-30T00:29:04.374Z,13.67
2018-06-30T00:31:33.730Z,14.37
2018-06-30T00:34:03.105Z,14.07
2018-06-30T00:36:32.459Z,14.50
2018-06-30T00:39:01.813Z,14.80
2018-06-30T00:41:31.182Z,14.63
2018-06-30T00:44:00.546Z,14.60
2018-06-30T00:46:29.906Z,15.17
2018-06-30T00:48:59.258Z,15.13
2018-06-30T00:51:28.633Z,14.87
2018-06-30T00:53:58.043Z,14.63
2018-06-30T00:56:27.461Z,13.60
2018-06-30T00:58:56.864Z,14.13
2018-06-30T01:01:26.297Z,14.60
2018-06-30T01:03:55.665Z,13.97
2018-06-30T01:06:25.012Z,14.30
2018-06-30T01:08:54.366Z,13.60
2018-06-30T01:11:23.739Z,13.07
2018-06-30T01:13:53.193Z,13.53
2018-06-30T01:16:22.618Z,13.47
2018-06-30T01:18:52.015Z,12.93
2018-06-30T01:21:21.363Z,13.20
2018-06-30T01:23:50.710Z,12.70
2018-06-30T01:26:20.081Z,12.60
2018-06-30T01:28:49.542Z,13.03
2018-06-30T01:31:18.986Z,12.03
2018-06-30T01:33:48.370Z,13.03
2018-06-30T01:36:17.733Z,13.73
2018-06-30T01:38:47.112Z,13.10
2018-06-30T01:41:16.485Z,12.87
2018-06-30T01:43:46.140Z,12.70
2018-06-30T01:46:15.536Z,12.70
2018-06-30T01:48:44.902Z,11.97
2018-06-30T01:51:14.263Z,12.47
2018-06-30T01:53:43.674Z,11.83
2018-06-30T01:56:13.048Z,12.57
2018-06-30T01:58:42.402Z,11.83
2018-06-30T02:01:11.763Z,12.37
2018-06-30T02:03:41.132Z,12.03
2018-06-30T02:06:10.514Z,13.43
2018-06-30T02:08:39.995Z,13.30
2018-06-30T02:11:09.424Z,14.20
2018-06-30T02:13:38.764Z,13.83
2018-06-30T02:16:08.145Z,13.67
2018-06-30T02:18:37.540Z,13.67
2018-06-30T02:21:06.942Z,13.70
2018-06-30T02:23:36.050Z,13.67
2018-06-30T02:26:05.593Z,12.80
2018-06-30T02:28:34.931Z,14.03
2018-06-30T02:31:04.309Z,13.43
2018-06-30T02:33:33.697Z,13.00
2018-06-30T02:36:03.038Z,14.40
2018-06-30T02:38:32.544Z,14.40
2018-06-30T02:41:01.912Z,14.57
2018-06-30T02:43:31.451Z,15.20
2018-06-30T02:46:00.721Z,14.30
2018-06-30T02:48:30.016Z,13.80
2018-06-30T02:50:59.420Z,14.53
2018-06-30T02:53:28.961Z,14.70
2018-06-30T02:55:58.458Z,14.80
2018-06-30T02:58:27.867Z,14.23
2018-06-30T03:00:59.024Z,14.13
2018-06-30T03:03:29.092Z,14.47
2018-06-30T03:05:59.420Z,14.77
2018-06-30T03:08:29.362Z,14.33
2018-06-30T03:10:58.851Z,14.30
2018-06-30T03:13:28.288Z,14.73
2018-06-30T03:15:58.692Z,14.63
2018-06-30T03:18:28.126Z,14.53
2018-06-30T03:20:57.969Z,14.80
2018-06-30T03:23:27.391Z,15.30
2018-06-30T03:25:56.833Z,14.50
2018-06-30T03:28:26.217Z,14.37
2018-06-30T03:30:55.639Z,15.00
2018-06-30T03:33:25.058Z,15.23
2018-06-30T03:35:54.494Z,14.80
2018-06-30T03:38:23.794Z,15.20
2018-06-30T03:40:53.220Z,15.60
2018-06-30T03:43:22.338Z,14.97
2018-06-30T03:45:51.695Z,14.57
2018-06-30T03:48:21.146Z,14.57
2018-06-30T03:50:50.527Z,15.33
2018-06-30T03:53:19.871Z,14.57
2018-06-30T03:55:49.214Z,15.80
2018-06-30T03:58:18.563Z,14.43
2018-06-30T04:00:47.942Z,15.33
2018-06-30T04:03:17.349Z,13.53
2018-06-30T04:05:46.741Z,14.77
2018-06-30T04:08:16.097Z,14.87
2018-06-30T04:10:45.539Z,14.77
2018-06-30T04:13:14.966Z,14.20
2018-06-30T04:15:44.333Z,13.50
2018-06-30T04:18:13.690Z,14.07
2018-06-30T04:20:43.125Z,14.73
2018-06-30T04:23:12.518Z,14.07
2018-06-30T04:25:41.939Z,13.77
2018-06-30T04:28:11.465Z,13.67
2018-06-30T04:30:41.471Z,12.50
2018-06-30T04:33:10.808Z,12.37
2018-06-30T04:35:40.158Z,12.00
2018-06-30T04:38:09.567Z,12.37
2018-06-30T04:40:38.933Z,11.60
2018-06-30T04:43:08.278Z,11.67
2018-06-30T04:45:37.633Z,11.07
2018-06-30T04:48:07.805Z,10.47
2018-06-30T04:50:37.303Z,9.93
2018-06-30T04:53:06.728Z,10.50
2018-06-30T04:55:36.216Z,10.60
2018-06-30T04:58:05.564Z,10.27
2018-06-30T05:00:34.930Z,9.10
2018-06-30T05:03:04.260Z,9.50
2018-06-30T05:05:33.605Z,9.20
2018-06-30T05:08:02.981Z,9.47
2018-06-30T05:10:32.782Z,9.33
2018-06-30T05:13:02.959Z,9.73
2018-06-30T05:15:33.020Z,9.40
2018-06-30T05:18:02.475Z,9.60
2018-06-30T05:20:31.820Z,9.10
2018-06-30T05:23:01.202Z,8.63
2018-06-30T05:25:30.646Z,8.77
2018-06-30T05:28:00.918Z,9.10
2018-06-30T05:30:30.867Z,9.43
2018-06-30T05:33:01.482Z,9.13
2018-06-30T05:35:31.776Z,8.97
2018-06-30T05:38:01.354Z,9.50
2018-06-30T05:40:31.502Z,8.77
2018-06-30T05:43:01.045Z,7.77
2018-06-30T05:45:31.415Z,7.97
2018-06-30T05:48:01.061Z,7.50
2018-06-30T05:50:30.809Z,7.83
2018-06-30T05:53:00.286Z,8.00
2018-06-30T05:55:29.671Z,8.63
2018-06-30T05:57:59.262Z,8.43
2018-06-30T06:00:28.787Z,8.40
2018-06-30T06:02:58.210Z,8.87
2018-06-30T06:05:27.773Z,8.70
2018-06-30T06:07:57.425Z,8.23
2018-06-30T06:10:26.902Z,9.33
2018-06-30T06:12:56.336Z,9.73
2018-06-30T06:15:26.432Z,8.27
2018-06-30T06:17:55.773Z,9.50
2018-06-30T06:20:25.208Z,10.13
2018-06-30T06:22:54.849Z,8.67
2018-06-30T06:25:24.237Z,9.60
2018-06-30T06:27:53.737Z,9.50
2018-06-30T06:30:23.105Z,9.03
2018-06-30T06:32:52.635Z,8.67
2018-06-30T06:35:22.033Z,8.30
2018-06-30T06:37:51.420Z,8.70
2018-06-30T06:40:20.825Z,8.77
2018-06-30T06:42:50.249Z,8.87
2018-06-30T06:45:19.640Z,8.57
2018-06-30T06:47:49.024Z,8.80
2018-06-30T06:50:18.469Z,7.90
2018-06-30T06:52:47.884Z,9.23
2018-06-30T06:55:17.255Z,9.57
2018-06-30T06:57:46.649Z,8.50
2018-06-30T07:00:16.025Z,8.37
2018-06-30T07:02:45.163Z,8.80
2018-06-30T07:05:14.598Z,8.77
2018-06-30T07:07:44.022Z,9.07
2018-06-30T07:10:13.394Z,8.50
2018-06-30T07:12:42.752Z,9.70
2018-06-30T07:15:12.439Z,9.37
2018-06-30T07:17:41.774Z,8.83
2018-06-30T07:20:11.237Z,8.40
2018-06-30T07:22:40.474Z,9.70
2018-06-30T07:25:09.847Z,9.40
2018-06-30T07:27:39.255Z,8.63
2018-06-30T07:30:09.909Z,8.97
2018-06-30T07:32:40.883Z,11.30
2018-06-30T07:35:10.314Z,12.57
2018-06-30T07:37:39.732Z,10.50
2018-06-30T07:40:09.217Z,11.30
2018-06-30T07:42:38.591Z,10.93
2018-06-30T07:45:07.951Z,11.13
2018-06-30T07:47:37.341Z,10.63
2018-06-30T07:50:06.769Z,11.17
2018-06-30T07:52:36.103Z,11.80
2018-06-30T07:55:05.590Z,11.30
2018-06-30T07:57:34.922Z,20.73
2018-06-30T08:00:04.976Z,18.90
2018-06-30T08:02:34.316Z,12.60
2018-06-30T08:05:03.717Z,14.17
2018-06-30T08:07:33.096Z,12.47
2018-06-30T08:10:02.556Z,15.87
2018-06-30T08:12:31.956Z,13.83
2018-06-30T08:15:01.329Z,12.07
2018-06-30T08:17:30.752Z,12.80
2018-06-30T08:20:00.137Z,11.10
2018-06-30T08:22:29.670Z,12.63
2018-06-30T08:24:59.073Z,12.30
2018-06-30T08:27:28.712Z,12.17
2018-06-30T08:29:58.161Z,15.37
2018-06-30T08:32:27.690Z,17.80
2018-06-30T08:34:57.115Z,11.43
2018-06-30T08:37:26.719Z,13.00
2018-06-30T08:39:56.172Z,12.53
2018-06-30T08:42:26.444Z,12.30
2018-06-30T08:44:55.895Z,13.13
2018-06-30T08:47:25.361Z,12.70
2018-06-30T08:49:54.782Z,11.80
2018-06-30T08:52:24.142Z,11.47
2018-06-30T08:54:59.867Z,11.23
2018-06-30T08:57:29.397Z,12.07
2018-06-30T08:59:58.905Z,12.33
2018-06-30T09:02:28.407Z,12.95
2018-06-30T09:04:57.905Z,12.30
2018-06-30T09:07:27.404Z,11.70
2018-06-30T09:09:56.932Z,11.70
2018-06-30T09:12:26.480Z,11.95
2018-06-30T09:14:57.061Z,13.30
2018-06-30T09:17:27.022Z,12.73
2018-06-30T09:19:56.858Z,12.00
2018-06-30T09:22:26.148Z,11.97
2018-06-30T09:24:55.592Z,16.60
2018-06-30T09:27:25.245Z,11.78
2018-06-30T09:29:54.693Z,10.85
2018-06-30T09:32:24.223Z,11.20
2018-06-30T09:34:54.131Z,9.90
2018-06-30T09:37:23.572Z,9.20
2018-06-30T09:39:53.350Z,8.05
2018-06-30T09:42:22.830Z,9.15
2018-06-30T09:44:52.257Z,8.53
2018-06-30T09:47:21.674Z,10.18
2018-06-30T09:49:52.031Z,7.65
2018-06-30T09:52:21.429Z,7.12
2018-06-30T09:54:50.828Z,6.85
2018-06-30T09:57:20.416Z,6.53
2018-06-30T09:59:50.489Z,6.45
2018-06-30T10:02:20.964Z,5.22
2018-06-30T10:04:51.338Z,4.30
2018-06-30T10:07:20.702Z,3.90
2018-06-30T10:09:50.928Z,4.12
2018-06-30T10:12:20.365Z,11.38
2018-06-30T10:14:49.850Z,7.65
2018-06-30T10:17:19.269Z,6.62
2018-06-30T10:19:48.720Z,6.47
2018-06-30T10:22:18.134Z,5.50
2018-06-30T10:24:47.485Z,6.28
2018-06-30T10:27:16.849Z,6.83
2018-06-30T10:29:46.231Z,6.87
2018-06-30T10:32:15.680Z,7.47
2018-06-30T10:34:45.084Z,7.62
2018-06-30T10:37:14.658Z,8.50
2018-06-30T10:39:44.530Z,7.58
2018-06-30T10:42:14.094Z,10.13
2018-06-30T10:44:43.506Z,8.68
2018-06-30T10:47:13.136Z,10.05
2018-06-30T10:49:43.554Z,10.50
2018-06-30T10:52:12.967Z,8.50
2018-06-30T10:54:42.318Z,9.40
2018-06-30T10:57:11.431Z,9.30
2018-06-30T10:59:40.848Z,9.80
2018-06-30T11:02:10.313Z,9.15
2018-06-30T11:04:39.719Z,8.08
2018-06-30T11:07:09.074Z,8.80
2018-06-30T11:09:38.478Z,7.70
2018-06-30T11:12:07.877Z,15.83
2018-06-30T11:14:37.278Z,14.55
2018-06-30T11:17:07.732Z,6.30
2018-06-30T11:19:37.371Z,5.70
2018-06-30T11:22:06.998Z,5.50
2018-06-30T11:24:37.492Z,5.85
2018-06-30T11:27:07.113Z,5.58
2018-06-30T11:29:36.481Z,5.75
2018-06-30T11:32:06.011Z,5.40
2018-06-30T11:34:35.891Z,5.08
2018-06-30T11:37:05.530Z,13.90
2018-06-30T11:39:34.933Z,8.45
2018-06-30T11:42:04.346Z,5.62
2018-06-30T11:44:33.811Z,5.33
2018-06-30T11:47:03.341Z,5.65
2018-06-30T11:49:32.901Z,5.00
2018-06-30T11:52:02.284Z,5.87
2018-06-30T11:54:31.788Z,5.55
2018-06-30T11:57:01.168Z,11.30
2018-06-30T11:59:30.801Z,5.50
2018-06-30T12:02:00.302Z,4.85
2018-06-30T12:04:29.938Z,5.00
2018-06-30T12:06:59.696Z,5.10
2018-06-30T12:09:29.242Z,10.08
2018-06-30T12:11:58.789Z,6.30
2018-06-30T12:14:28.214Z,4.78
2018-06-30T12:16:57.692Z,4.58
2018-06-30T12:19:27.305Z,4.30
2018-06-30T12:21:57.323Z,4.37
2018-06-30T12:24:26.816Z,4.47
2018-06-30T12:26:56.255Z,4.30
2018-06-30T12:29:25.741Z,4.65
2018-06-30T12:31:55.172Z,4.50
2018-06-30T12:34:24.560Z,4.40
2018-06-30T12:36:54.003Z,4.62
2018-06-30T12:39:23.488Z,4.80
2018-06-30T12:41:53.175Z,4.47
2018-06-30T12:44:22.558Z,4.45
2018-06-30T12:46:52.189Z,4.37
2018-06-30T12:49:21.676Z,4.58
2018-06-30T12:51:51.062Z,4.60
2018-06-30T12:54:20.565Z,4.72
2018-06-30T12:56:50.021Z,4.33
2018-06-30T12:59:19.460Z,5.10
2018-06-30T13:01:48.885Z,5.25
2018-06-30T13:04:18.279Z,4.95
2018-06-30T13:06:47.823Z,4.92
2018-06-30T13:09:17.356Z,5.83
2018-06-30T13:11:46.626Z,5.62
2018-06-30T13:14:16.048Z,5.47
2018-06-30T13:16:45.486Z,6.20
2018-06-30T13:19:15.218Z,6.40
2018-06-30T13:21:45.440Z,6.53
2018-06-30T13:24:15.181Z,6.58
2018-06-30T13:26:44.353Z,6.60
2018-06-30T13:29:13.759Z,7.20
2018-06-30T13:31:43.177Z,6.37
2018-06-30T13:34:13.244Z,6.15
2018-06-30T13:36:42.747Z,6.28
2018-06-30T13:39:14.351Z,6.53
2018-06-30T13:41:44.143Z,6.67
2018-06-30T13:44:14.006Z,7.25
2018-06-30T13:46:43.442Z,7.85
2018-06-30T13:49:13.183Z,7.45
2018-06-30T13:51:42.586Z,7.87
2018-06-30T13:54:12.026Z,7.45
2018-06-30T13:56:41.401Z,7.53
2018-06-30T13:59:10.863Z,7.42
2018-06-30T14:01:40.275Z,7.53
2018-06-30T14:04:09.645Z,7.03
2018-06-30T14:06:39.064Z,7.62
2018-06-30T14:09:11.047Z,9.00
2018-06-30T14:11:40.852Z,8.70
2018-06-30T14:14:10.517Z,8.53
2018-06-30T14:16:40.805Z,9.10
2018-06-30T14:19:10.298Z,9.40
2018-06-30T14:21:40.038Z,8.95
2018-06-30T14:24:09.544Z,9.13
2018-06-30T14:26:39.115Z,9.38
2018-06-30T14:29:08.564Z,9.08
2018-06-30T14:31:38.106Z,8.80
2018-06-30T14:34:07.641Z,9.08
2018-06-30T14:36:37.251Z,8.55
2018-06-30T14:39:10.946Z,8.55
2018-06-30T14:41:40.480Z,8.50
2018-06-30T14:44:10.038Z,9.00
2018-06-30T14:46:39.464Z,8.50
2018-06-30T14:49:08.914Z,8.05
2018-06-30T14:51:38.295Z,8.40
2018-06-30T14:54:07.732Z,8.23
2018-06-30T14:56:37.122Z,7.85
2018-06-30T14:59:06.645Z,7.75
2018-06-30T15:01:36.035Z,8.38
2018-06-30T15:04:05.642Z,8.60
2018-06-30T15:06:35.536Z,9.03
2018-06-30T15:09:08.313Z,8.90
2018-06-30T15:11:38.084Z,8.38
2018-06-30T15:14:07.558Z,8.25
2018-06-30T15:16:37.442Z,8.13
2018-06-30T15:19:07.258Z,8.55
2018-06-30T15:21:36.643Z,7.67
2018-06-30T15:24:06.691Z,7.90
2018-06-30T15:26:36.068Z,7.85
2018-06-30T15:29:05.775Z,8.18
2018-06-30T15:31:35.286Z,7.65
2018-06-30T15:34:04.760Z,7.92
2018-06-30T15:36:34.257Z,7.80
2018-06-30T15:39:04.230Z,7.80
2018-06-30T15:41:33.678Z,8.58
2018-06-30T15:44:03.302Z,8.60
2018-06-30T15:46:32.753Z,7.20
2018-06-30T15:49:02.305Z,8.10
2018-06-30T15:51:32.252Z,8.03
2018-06-30T15:54:01.595Z,7.15
2018-06-30T15:56:31.125Z,8.00
2018-06-30T15:59:00.668Z,7.50
2018-06-30T16:01:30.131Z,11.20
2018-06-30T16:03:59.696Z,8.08
2018-06-30T16:06:29.446Z,8.35
2018-06-30T16:08:59.026Z,7.30
2018-06-30T16:11:28.526Z,8.05
2018-06-30T16:13:58.081Z,8.13
2018-06-30T16:16:27.528Z,7.47
2018-06-30T16:18:57.054Z,9.33
2018-06-30T16:21:26.482Z,9.20
2018-06-30T16:23:55.984Z,9.18
2018-06-30T16:26:25.458Z,8.10
2018-06-30T16:28:55.293Z,7.78
2018-06-30T16:31:24.635Z,7.50
2018-06-30T16:33:54.374Z,7.55
2018-06-30T16:36:23.727Z,7.50
2018-06-30T16:38:53.183Z,7.70
2018-06-30T16:41:22.782Z,7.20
2018-06-30T16:43:52.155Z,8.38
2018-06-30T16:46:21.573Z,7.22
2018-06-30T16:48:50.958Z,7.55
2018-06-30T16:51:20.330Z,7.80
2018-06-30T16:53:49.734Z,9.60
2018-06-30T16:56:19.185Z,8.15
2018-06-30T16:58:48.622Z,7.12
2018-06-30T17:01:18.170Z,7.20
2018-06-30T17:03:48.633Z,6.93
2018-06-30T17:06:18.210Z,6.80
2018-06-30T17:08:48.025Z,6.60
2018-06-30T17:11:18.491Z,5.92
2018-06-30T17:13:47.941Z,6.60
2018-06-30T17:16:17.378Z,6.90
2018-06-30T17:18:46.795Z,7.30
2018-06-30T17:21:16.338Z,6.97
2018-06-30T17:23:45.948Z,5.00
2018-06-30T17:26:15.458Z,5.15
2018-06-30T17:28:44.845Z,4.55
2018-06-30T17:31:14.613Z,4.60
2018-06-30T17:33:44.029Z,4.47
2018-06-30T17:36:13.637Z,4.47
2018-06-30T17:38:43.108Z,3.60
2018-06-30T17:41:12.560Z,3.73
2018-06-30T17:43:42.050Z,3.43
2018-06-30T17:46:11.431Z,3.20
2018-06-30T17:48:40.824Z,3.22
2018-06-30T17:51:10.254Z,3.37
2018-06-30T17:53:39.687Z,3.10
2018-06-30T17:56:09.089Z,3.23
2018-06-30T17:58:38.574Z,3.07
2018-06-30T18:01:08.271Z,3.10
2018-06-30T18:03:37.716Z,3.00
2018-06-30T18:06:07.070Z,3.40
2018-06-30T18:08:36.531Z,3.00
2018-06-30T18:11:06.131Z,3.00
2018-06-30T18:13:35.624Z,3.10
2018-06-30T18:16:05.340Z,2.80
2018-06-30T18:18:35.176Z,2.80
2018-06-30T18:21:04.874Z,2.83
2018-06-30T18:23:34.342Z,2.67
2018-06-30T18:26:03.729Z,3.00
2018-06-30T18:28:33.208Z,2.70
2018-06-30T18:31:02.553Z,2.62
2018-06-30T18:33:31.985Z,3.20
2018-06-30T18:36:01.373Z,3.07
2018-06-30T18:38:30.835Z,2.73
2018-06-30T18:41:00.250Z,2.87
2018-06-30T18:43:29.747Z,3.00
2018-06-30T18:45:59.329Z,2.33
2018-06-30T18:48:28.828Z,2.30
2018-06-30T18:50:58.298Z,2.40
2018-06-30T18:53:34.830Z,2.40
2018-06-30T18:56:04.331Z,2.03
2018-06-30T18:58:33.700Z,2.17
2018-06-30T19:01:03.085Z,2.23
2018-06-30T19:03:32.533Z,2.23
2018-06-30T19:06:01.920Z,2.20
2018-06-30T19:08:31.393Z,2.10
2018-06-30T19:11:00.711Z,2.00
2018-06-30T19:13:30.280Z,1.73
2018-06-30T19:15:59.801Z,2.17
2018-06-30T19:18:29.225Z,2.20
2018-06-30T19:20:58.668Z,2.23
2018-06-30T19:23:28.266Z,2.17
2018-06-30T19:25:58.111Z,2.17
2018-06-30T19:28:27.583Z,2.10
2018-06-30T19:30:57.049Z,2.10
2018-06-30T19:33:26.615Z,2.17
2018-06-30T19:35:56.006Z,1.80
2018-06-30T19:38:25.532Z,1.90
2018-06-30T19:40:55.001Z,2.10
2018-06-30T19:43:24.490Z,1.90
2018-06-30T19:45:53.958Z,1.60
2018-06-30T19:48:23.331Z,2.13
2018-06-30T19:50:52.771Z,2.17
2018-06-30T19:53:22.281Z,2.20
2018-06-30T19:55:51.690Z,2.03
2018-06-30T19:58:21.117Z,1.63
2018-06-30T20:00:50.544Z,1.80
2018-06-30T20:03:19.895Z,1.87
2018-06-30T20:05:49.340Z,2.10
2018-06-30T20:08:18.509Z,1.80
2018-06-30T20:10:47.861Z,2.13
2018-06-30T20:13:17.402Z,1.90
2018-06-30T20:15:47.201Z,1.63
2018-06-30T20:18:16.653Z,1.83
2018-06-30T20:20:46.396Z,2.00
2018-06-30T20:23:15.878Z,2.07
2018-06-30T20:25:45.470Z,2.10
2018-06-30T20:28:14.894Z,1.80
2018-06-30T20:30:44.326Z,1.70
2018-06-30T20:33:13.671Z,1.70
2018-06-30T20:35:43.076Z,2.00
2018-06-30T20:38:12.677Z,1.67
2018-06-30T20:40:42.094Z,1.60
2018-06-30T20:43:11.487Z,1.70
2018-06-30T20:45:41.245Z,1.60
2018-06-30T20:48:10.577Z,1.70
2018-06-30T20:50:39.965Z,1.50
2018-06-30T20:53:09.379Z,1.53
2018-06-30T20:55:38.717Z,1.50
2018-06-30T20:58:08.098Z,1.40
2018-06-30T21:00:37.611Z,1.23
2018-06-30T21:03:07.206Z,1.40
2018-06-30T21:05:36.566Z,1.10
2018-06-30T21:08:05.952Z,1.30
2018-06-30T21:10:35.289Z,1.20
2018-06-30T21:13:04.776Z,1.43
2018-06-30T21:15:34.131Z,1.37
2018-06-30T21:18:05.025Z,1.53
2018-06-30T21:20:34.427Z,1.30
2018-06-30T21:23:05.213Z,1.50
2018-06-30T21:25:35.701Z,1.60
2018-06-30T21:28:05.604Z,1.40
2018-06-30T21:30:37.306Z,1.20
2018-06-30T21:33:06.873Z,1.50
2018-06-30T21:35:36.245Z,1.40
2018-06-30T21:38:05.722Z,1.57
2018-06-30T21:40:35.062Z,1.40
2018-06-30T21:43:04.507Z,1.50
2018-06-30T21:45:33.830Z,1.30
2018-06-30T21:48:03.334Z,1.30
2018-06-30T21:50:32.702Z,1.43
2018-06-30T21:53:02.118Z,1.23
2018-06-30T21:55:31.495Z,1.27
2018-06-30T21:58:00.854Z,1.13
2018-06-30T22:00:50.160Z,1.40
2018-06-30T22:03:23.217Z,1.10
2018-06-30T22:05:53.976Z,1.37
2018-06-30T22:08:23.433Z,1.50
2018-06-30T22:10:52.876Z,1.30
2018-06-30T22:13:22.157Z,1.10
2018-06-30T22:15:51.609Z,1.10
2018-06-30T22:18:21.008Z,1.30
2018-06-30T22:20:50.303Z,1.10
2018-06-30T22:23:19.671Z,1.30
2018-06-30T22:25:49.034Z,1.17
2018-06-30T22:28:18.393Z,1.27
2018-06-30T22:30:47.745Z,1.30
2018-06-30T22:33:17.118Z,1.23
2018-06-30T22:35:46.500Z,1.30
2018-06-30T22:38:15.853Z,1.33
2018-06-30T22:40:45.209Z,1.43
2018-06-30T22:43:14.565Z,1.20
2018-06-30T22:45:43.943Z,1.40
2018-06-30T22:48:13.305Z,6.73
2018-06-30T22:50:42.622Z,24.80
2018-06-30T22:53:11.941Z,2.67
2018-06-30T22:55:41.493Z,1.30
2018-06-30T22:58:10.793Z,1.30
2018-06-30T23:00:40.117Z,1.20
2018-06-30T23:03:11.736Z,1.10
2018-06-30T23:05:42.106Z,1.40
2018-06-30T23:08:12.166Z,1.30
2018-06-30T23:10:41.540Z,1.40
2018-06-30T23:13:10.882Z,1.30
2018-06-30T23:15:40.022Z,1.30
2018-06-30T23:18:09.361Z,1.37
2018-06-30T23:20:38.721Z,1.20
2018-06-30T23:23:09.185Z,1.10
2018-06-30T23:25:39.217Z,1.40
2018-06-30T23:28:08.965Z,1.10
2018-06-30T23:30:38.277Z,1.43
2018-06-30T23:33:07.619Z,1.13
2018-06-30T23:35:36.983Z,1.30
2018-06-30T23:38:06.592Z,1.30
2018-06-30T23:40:36.910Z,1.20
2018-06-30T23:43:06.026Z,1.13
2018-06-30T23:45:35.430Z,1.00
2018-06-30T23:48:05.040Z,1.20
2018-06-30T23:50:34.405Z,1.20
2018-06-30T23:53:05.226Z,1.20
2018-06-30T23:55:34.989Z,1.40
2018-06-30T23:58:04.411Z,1.30
